sensor_id;sensor_type;location;lat;lon;timestamp;P1;durP1;ratioP1;P2;durP2;ratioP2
14892;SDS011;7538;53.626;9.906;2023-08-07T00:02:02;4.05;;;2.60;;
14892;SDS011;7538;53.626;9.906;2023-08-07T00:04:29;2.92;;;2.15;;
14892;SDS011;7538;53.626;9.906;2023-08-07T00:06:58;3.10;;;2.15;;
14892;SDS011;7538;53.626;9.906;2023-08-07T00:09:24;2.80;;;2.10;;
14892;SDS011;7538;53.626;9.906;2023-08-07T00:11:51;4.80;;;2.30;;
14892;SDS011;7538;53.626;9.906;2023-08-07T00:14:18;2.22;;;2.03;;
14892;SDS011;7538;53.626;9.906;2023-08-07T00:16:45;3.75;;;1.75;;
14892;SDS011;7538;53.626;9.906;2023-08-07T00:19:11;2.40;;;1.88;;
14892;SDS011;7538;53.626;9.906;2023-08-07T00:21:38;2.22;;;1.83;;
14892;SDS011;7538;53.626;9.906;2023-08-07T00:24:06;4.05;;;1.90;;
14892;SDS011;7538;53.626;9.906;2023-08-07T00:26:33;2.28;;;1.90;;
14892;SDS011;7538;53.626;9.906;2023-08-07T00:29:00;2.53;;;1.60;;
14892;SDS011;7538;53.626;9.906;2023-08-07T00:31:26;3.58;;;1.90;;
14892;SDS011;7538;53.626;9.906;2023-08-07T00:33:56;4.55;;;2.15;;
14892;SDS011;7538;53.626;9.906;2023-08-07T00:36:23;3.33;;;1.95;;
14892;SDS011;7538;53.626;9.906;2023-08-07T00:38:53;2.80;;;1.85;;
14892;SDS011;7538;53.626;9.906;2023-08-07T00:41:23;2.95;;;2.00;;
14892;SDS011;7538;53.626;9.906;2023-08-07T00:43:49;2.78;;;2.20;;
14892;SDS011;7538;53.626;9.906;2023-08-07T00:46:16;2.35;;;1.88;;
14892;SDS011;7538;53.626;9.906;2023-08-07T00:48:43;2.40;;;2.20;;
14892;SDS011;7538;53.626;9.906;2023-08-07T00:51:11;2.33;;;1.80;;
14892;SDS011;7538;53.626;9.906;2023-08-07T00:53:38;2.25;;;2.00;;
14892;SDS011;7538;53.626;9.906;2023-08-07T00:56:05;2.53;;;1.92;;
14892;SDS011;7538;53.626;9.906;2023-08-07T00:58:34;3.92;;;1.88;;
14892;SDS011;7538;53.626;9.906;2023-08-07T01:01:02;2.65;;;1.92;;
14892;SDS011;7538;53.626;9.906;2023-08-07T01:03:29;2.05;;;1.85;;
14892;SDS011;7538;53.626;9.906;2023-08-07T01:05:55;1.67;;;1.58;;
14892;SDS011;7538;53.626;9.906;2023-08-07T01:08:22;3.67;;;1.80;;
14892;SDS011;7538;53.626;9.906;2023-08-07T01:11:00;2.55;;;1.88;;
14892;SDS011;7538;53.626;9.906;2023-08-07T01:13:47;2.55;;;2.20;;
14892;SDS011;7538;53.626;9.906;2023-08-07T01:16:24;3.47;;;1.73;;
14892;SDS011;7538;53.626;9.906;2023-08-07T01:18:55;4.05;;;1.90;;
14892;SDS011;7538;53.626;9.906;2023-08-07T01:21:23;2.50;;;2.20;;
14892;SDS011;7538;53.626;9.906;2023-08-07T01:23:51;4.15;;;2.45;;
14892;SDS011;7538;53.626;9.906;2023-08-07T01:26:18;3.05;;;2.00;;
14892;SDS011;7538;53.626;9.906;2023-08-07T01:28:46;3.35;;;2.20;;
14892;SDS011;7538;53.626;9.906;2023-08-07T01:31:21;2.95;;;2.05;;
14892;SDS011;7538;53.626;9.906;2023-08-07T01:33:51;2.80;;;2.20;;
14892;SDS011;7538;53.626;9.906;2023-08-07T01:36:25;2.63;;;2.13;;
14892;SDS011;7538;53.626;9.906;2023-08-07T01:38:56;2.78;;;2.08;;
14892;SDS011;7538;53.626;9.906;2023-08-07T01:41:24;1.92;;;1.80;;
14892;SDS011;7538;53.626;9.906;2023-08-07T01:43:51;3.40;;;2.28;;
14892;SDS011;7538;53.626;9.906;2023-08-07T01:46:18;2.88;;;2.20;;
14892;SDS011;7538;53.626;9.906;2023-08-07T01:48:45;2.35;;;2.15;;
14892;SDS011;7538;53.626;9.906;2023-08-07T01:51:11;5.05;;;2.20;;
14892;SDS011;7538;53.626;9.906;2023-08-07T01:53:38;2.40;;;2.10;;
14892;SDS011;7538;53.626;9.906;2023-08-07T01:56:06;2.45;;;2.20;;
14892;SDS011;7538;53.626;9.906;2023-08-07T01:58:33;2.72;;;2.45;;
14892;SDS011;7538;53.626;9.906;2023-08-07T02:01:00;3.38;;;2.40;;
14892;SDS011;7538;53.626;9.906;2023-08-07T02:03:27;3.72;;;2.30;;
14892;SDS011;7538;53.626;9.906;2023-08-07T02:05:53;2.42;;;2.10;;
14892;SDS011;7538;53.626;9.906;2023-08-07T02:08:20;2.22;;;2.00;;
14892;SDS011;7538;53.626;9.906;2023-08-07T02:10:47;3.67;;;2.33;;
14892;SDS011;7538;53.626;9.906;2023-08-07T02:13:15;3.88;;;2.08;;
14892;SDS011;7538;53.626;9.906;2023-08-07T02:15:42;3.22;;;2.17;;
14892;SDS011;7538;53.626;9.906;2023-08-07T02:18:09;4.68;;;2.10;;
14892;SDS011;7538;53.626;9.906;2023-08-07T02:20:35;2.67;;;2.30;;
14892;SDS011;7538;53.626;9.906;2023-08-07T02:23:02;2.50;;;2.10;;
14892;SDS011;7538;53.626;9.906;2023-08-07T02:25:29;4.63;;;2.53;;
14892;SDS011;7538;53.626;9.906;2023-08-07T02:27:56;2.90;;;2.28;;
14892;SDS011;7538;53.626;9.906;2023-08-07T02:30:24;2.90;;;2.17;;
14892;SDS011;7538;53.626;9.906;2023-08-07T02:32:51;3.13;;;1.95;;
14892;SDS011;7538;53.626;9.906;2023-08-07T02:35:17;3.25;;;2.30;;
14892;SDS011;7538;53.626;9.906;2023-08-07T02:37:44;3.53;;;2.17;;
14892;SDS011;7538;53.626;9.906;2023-08-07T02:40:11;3.95;;;2.75;;
14892;SDS011;7538;53.626;9.906;2023-08-07T02:42:40;3.63;;;2.72;;
14892;SDS011;7538;53.626;9.906;2023-08-07T02:45:07;3.15;;;2.20;;
14892;SDS011;7538;53.626;9.906;2023-08-07T02:47:36;2.53;;;2.10;;
14892;SDS011;7538;53.626;9.906;2023-08-07T02:50:03;2.03;;;1.83;;
14892;SDS011;7538;53.626;9.906;2023-08-07T02:52:30;3.45;;;2.22;;
14892;SDS011;7538;53.626;9.906;2023-08-07T02:54:57;2.00;;;1.80;;
14892;SDS011;7538;53.626;9.906;2023-08-07T02:57:23;2.30;;;2.10;;
14892;SDS011;7538;53.626;9.906;2023-08-07T02:59:51;5.18;;;1.88;;
14892;SDS011;7538;53.626;9.906;2023-08-07T03:02:17;3.30;;;1.85;;
14892;SDS011;7538;53.626;9.906;2023-08-07T03:04:45;2.15;;;1.95;;
14892;SDS011;7538;53.626;9.906;2023-08-07T03:07:12;3.70;;;1.80;;
14892;SDS011;7538;53.626;9.906;2023-08-07T03:09:39;2.65;;;1.75;;
14892;SDS011;7538;53.626;9.906;2023-08-07T03:12:06;3.53;;;1.92;;
14892;SDS011;7538;53.626;9.906;2023-08-07T03:14:33;1.88;;;1.70;;
14892;SDS011;7538;53.626;9.906;2023-08-07T03:17:00;2.00;;;1.55;;
14892;SDS011;7538;53.626;9.906;2023-08-07T03:19:27;2.25;;;2.05;;
14892;SDS011;7538;53.626;9.906;2023-08-07T03:21:55;2.13;;;1.83;;
14892;SDS011;7538;53.626;9.906;2023-08-07T03:24:22;1.70;;;1.60;;
14892;SDS011;7538;53.626;9.906;2023-08-07T03:26:48;2.83;;;1.85;;
14892;SDS011;7538;53.626;9.906;2023-08-07T03:29:16;3.30;;;1.67;;
14892;SDS011;7538;53.626;9.906;2023-08-07T03:31:43;2.75;;;2.00;;
14892;SDS011;7538;53.626;9.906;2023-08-07T03:34:09;3.72;;;1.98;;
14892;SDS011;7538;53.626;9.906;2023-08-07T03:36:36;3.55;;;1.83;;
14892;SDS011;7538;53.626;9.906;2023-08-07T03:39:04;5.32;;;2.08;;
14892;SDS011;7538;53.626;9.906;2023-08-07T03:41:31;2.47;;;1.67;;
14892;SDS011;7538;53.626;9.906;2023-08-07T03:43:58;2.75;;;2.03;;
14892;SDS011;7538;53.626;9.906;2023-08-07T03:46:25;2.60;;;1.80;;
14892;SDS011;7538;53.626;9.906;2023-08-07T03:48:51;2.40;;;1.73;;
14892;SDS011;7538;53.626;9.906;2023-08-07T03:51:18;5.30;;;2.22;;
14892;SDS011;7538;53.626;9.906;2023-08-07T03:53:45;4.95;;;2.42;;
14892;SDS011;7538;53.626;9.906;2023-08-07T03:56:13;2.47;;;1.83;;
14892;SDS011;7538;53.626;9.906;2023-08-07T03:58:40;3.58;;;2.15;;
14892;SDS011;7538;53.626;9.906;2023-08-07T04:01:07;3.58;;;2.30;;
14892;SDS011;7538;53.626;9.906;2023-08-07T04:03:35;3.65;;;1.90;;
14892;SDS011;7538;53.626;9.906;2023-08-07T04:06:03;3.38;;;2.33;;
14892;SDS011;7538;53.626;9.906;2023-08-07T04:08:30;4.18;;;2.38;;
14892;SDS011;7538;53.626;9.906;2023-08-07T04:10:57;3.38;;;2.10;;
14892;SDS011;7538;53.626;9.906;2023-08-07T04:13:26;3.28;;;2.28;;
14892;SDS011;7538;53.626;9.906;2023-08-07T04:15:54;5.80;;;2.22;;
14892;SDS011;7538;53.626;9.906;2023-08-07T04:18:21;3.10;;;2.28;;
14892;SDS011;7538;53.626;9.906;2023-08-07T04:23:18;2.33;;;2.08;;
14892;SDS011;7538;53.626;9.906;2023-08-07T04:25:45;3.30;;;2.28;;
14892;SDS011;7538;53.626;9.906;2023-08-07T04:28:13;3.42;;;2.47;;
14892;SDS011;7538;53.626;9.906;2023-08-07T04:30:41;3.40;;;2.03;;
14892;SDS011;7538;53.626;9.906;2023-08-07T04:33:09;3.38;;;2.30;;
14892;SDS011;7538;53.626;9.906;2023-08-07T04:35:35;2.55;;;2.00;;
14892;SDS011;7538;53.626;9.906;2023-08-07T04:38:02;3.90;;;2.15;;
14892;SDS011;7538;53.626;9.906;2023-08-07T04:40:29;4.68;;;2.60;;
14892;SDS011;7538;53.626;9.906;2023-08-07T04:42:56;3.80;;;2.42;;
14892;SDS011;7538;53.626;9.906;2023-08-07T04:45:23;3.83;;;2.30;;
14892;SDS011;7538;53.626;9.906;2023-08-07T04:47:51;4.68;;;2.45;;
14892;SDS011;7538;53.626;9.906;2023-08-07T04:50:18;4.13;;;2.35;;
14892;SDS011;7538;53.626;9.906;2023-08-07T04:52:44;5.80;;;2.58;;
14892;SDS011;7538;53.626;9.906;2023-08-07T04:55:11;6.60;;;2.92;;
14892;SDS011;7538;53.626;9.906;2023-08-07T04:57:38;5.07;;;2.47;;
14892;SDS011;7538;53.626;9.906;2023-08-07T05:00:05;4.75;;;2.42;;
14892;SDS011;7538;53.626;9.906;2023-08-07T05:02:33;4.55;;;2.47;;
14892;SDS011;7538;53.626;9.906;2023-08-07T05:05:01;3.85;;;2.60;;
14892;SDS011;7538;53.626;9.906;2023-08-07T05:07:29;5.80;;;2.95;;
14892;SDS011;7538;53.626;9.906;2023-08-07T05:09:56;5.55;;;2.58;;
14892;SDS011;7538;53.626;9.906;2023-08-07T05:12:24;4.70;;;2.90;;
14892;SDS011;7538;53.626;9.906;2023-08-07T05:14:51;4.80;;;2.25;;
14892;SDS011;7538;53.626;9.906;2023-08-07T05:17:18;2.95;;;2.33;;
14892;SDS011;7538;53.626;9.906;2023-08-07T05:19:45;5.53;;;2.67;;
14892;SDS011;7538;53.626;9.906;2023-08-07T05:22:13;5.82;;;2.45;;
14892;SDS011;7538;53.626;9.906;2023-08-07T05:24:39;3.55;;;2.05;;
14892;SDS011;7538;53.626;9.906;2023-08-07T05:27:07;4.38;;;2.55;;
14892;SDS011;7538;53.626;9.906;2023-08-07T05:29:34;4.28;;;2.03;;
14892;SDS011;7538;53.626;9.906;2023-08-07T05:32:08;5.28;;;2.30;;
14892;SDS011;7538;53.626;9.906;2023-08-07T05:34:35;5.10;;;2.63;;
14892;SDS011;7538;53.626;9.906;2023-08-07T05:37:02;4.35;;;2.40;;
14892;SDS011;7538;53.626;9.906;2023-08-07T05:39:30;5.85;;;2.17;;
14892;SDS011;7538;53.626;9.906;2023-08-07T05:41:57;8.45;;;2.75;;
14892;SDS011;7538;53.626;9.906;2023-08-07T05:44:24;5.60;;;2.50;;
14892;SDS011;7538;53.626;9.906;2023-08-07T05:46:51;8.70;;;3.15;;
14892;SDS011;7538;53.626;9.906;2023-08-07T05:49:17;8.38;;;2.97;;
14892;SDS011;7538;53.626;9.906;2023-08-07T05:51:44;8.35;;;2.53;;
14892;SDS011;7538;53.626;9.906;2023-08-07T05:54:11;9.38;;;2.70;;
14892;SDS011;7538;53.626;9.906;2023-08-07T05:56:41;11.18;;;3.00;;
14892;SDS011;7538;53.626;9.906;2023-08-07T05:59:11;12.35;;;2.70;;
14892;SDS011;7538;53.626;9.906;2023-08-07T06:01:37;5.20;;;2.22;;
14892;SDS011;7538;53.626;9.906;2023-08-07T06:04:05;11.43;;;3.10;;
14892;SDS011;7538;53.626;9.906;2023-08-07T06:06:33;10.95;;;3.03;;
14892;SDS011;7538;53.626;9.906;2023-08-07T06:09:00;6.47;;;2.45;;
14892;SDS011;7538;53.626;9.906;2023-08-07T06:11:28;9.15;;;2.85;;
14892;SDS011;7538;53.626;9.906;2023-08-07T06:13:56;10.52;;;2.80;;
14892;SDS011;7538;53.626;9.906;2023-08-07T06:16:23;6.85;;;2.30;;
14892;SDS011;7538;53.626;9.906;2023-08-07T06:18:50;7.00;;;3.13;;
14892;SDS011;7538;53.626;9.906;2023-08-07T06:21:17;6.85;;;2.95;;
14892;SDS011;7538;53.626;9.906;2023-08-07T06:23:45;5.85;;;2.95;;
14892;SDS011;7538;53.626;9.906;2023-08-07T06:26:13;12.02;;;3.08;;
14892;SDS011;7538;53.626;9.906;2023-08-07T06:28:41;10.93;;;3.33;;
14892;SDS011;7538;53.626;9.906;2023-08-07T06:31:10;10.82;;;3.33;;
14892;SDS011;7538;53.626;9.906;2023-08-07T06:33:38;10.40;;;3.30;;
14892;SDS011;7538;53.626;9.906;2023-08-07T06:36:04;10.60;;;3.90;;
14892;SDS011;7538;53.626;9.906;2023-08-07T06:38:32;9.00;;;3.38;;
14892;SDS011;7538;53.626;9.906;2023-08-07T06:40:59;11.65;;;3.40;;
14892;SDS011;7538;53.626;9.906;2023-08-07T06:43:26;9.45;;;3.75;;
14892;SDS011;7538;53.626;9.906;2023-08-07T06:45:53;8.82;;;3.25;;
14892;SDS011;7538;53.626;9.906;2023-08-07T06:48:22;9.05;;;3.35;;
14892;SDS011;7538;53.626;9.906;2023-08-07T06:50:49;10.05;;;3.70;;
14892;SDS011;7538;53.626;9.906;2023-08-07T06:53:16;11.02;;;3.50;;
14892;SDS011;7538;53.626;9.906;2023-08-07T06:55:44;11.10;;;3.58;;
14892;SDS011;7538;53.626;9.906;2023-08-07T06:58:11;12.27;;;3.95;;
14892;SDS011;7538;53.626;9.906;2023-08-07T07:00:38;13.05;;;3.60;;
14892;SDS011;7538;53.626;9.906;2023-08-07T07:03:04;11.75;;;3.92;;
14892;SDS011;7538;53.626;9.906;2023-08-07T07:05:34;13.27;;;3.95;;
14892;SDS011;7538;53.626;9.906;2023-08-07T07:08:00;10.18;;;3.97;;
14892;SDS011;7538;53.626;9.906;2023-08-07T07:10:27;7.88;;;3.03;;
14892;SDS011;7538;53.626;9.906;2023-08-07T07:12:54;10.82;;;3.85;;
14892;SDS011;7538;53.626;9.906;2023-08-07T07:15:21;10.02;;;3.50;;
14892;SDS011;7538;53.626;9.906;2023-08-07T07:17:48;13.60;;;3.90;;
14892;SDS011;7538;53.626;9.906;2023-08-07T07:20:15;10.32;;;3.05;;
14892;SDS011;7538;53.626;9.906;2023-08-07T07:22:43;8.55;;;3.63;;
14892;SDS011;7538;53.626;9.906;2023-08-07T07:25:10;14.25;;;3.80;;
14892;SDS011;7538;53.626;9.906;2023-08-07T07:27:37;8.57;;;3.97;;
14892;SDS011;7538;53.626;9.906;2023-08-07T07:30:05;10.30;;;3.47;;
14892;SDS011;7538;53.626;9.906;2023-08-07T07:32:33;9.70;;;3.60;;
14892;SDS011;7538;53.626;9.906;2023-08-07T07:35:00;10.05;;;3.90;;
14892;SDS011;7538;53.626;9.906;2023-08-07T07:37:27;8.82;;;3.35;;
14892;SDS011;7538;53.626;9.906;2023-08-07T07:39:55;11.65;;;4.13;;
14892;SDS011;7538;53.626;9.906;2023-08-07T07:42:21;8.60;;;3.25;;
14892;SDS011;7538;53.626;9.906;2023-08-07T07:44:48;12.10;;;4.85;;
14892;SDS011;7538;53.626;9.906;2023-08-07T07:47:15;8.57;;;4.05;;
14892;SDS011;7538;53.626;9.906;2023-08-07T07:49:44;10.20;;;3.65;;
14892;SDS011;7538;53.626;9.906;2023-08-07T07:52:21;9.90;;;3.65;;
14892;SDS011;7538;53.626;9.906;2023-08-07T07:55:04;10.27;;;3.80;;
14892;SDS011;7538;53.626;9.906;2023-08-07T07:57:33;10.73;;;3.72;;
14892;SDS011;7538;53.626;9.906;2023-08-07T08:03:24;8.90;;;3.80;;
14892;SDS011;7538;53.626;9.906;2023-08-07T08:05:50;7.75;;;3.83;;
14892;SDS011;7538;53.626;9.906;2023-08-07T08:08:17;9.95;;;3.50;;
14892;SDS011;7538;53.626;9.906;2023-08-07T08:10:46;11.98;;;4.00;;
14892;SDS011;7538;53.626;9.906;2023-08-07T08:13:13;13.23;;;4.22;;
14892;SDS011;7538;53.626;9.906;2023-08-07T08:15:40;11.88;;;3.83;;
14892;SDS011;7538;53.626;9.906;2023-08-07T08:18:06;8.85;;;4.15;;
14892;SDS011;7538;53.626;9.906;2023-08-07T08:20:33;9.60;;;3.80;;
14892;SDS011;7538;53.626;9.906;2023-08-07T08:23:00;13.55;;;3.67;;
14892;SDS011;7538;53.626;9.906;2023-08-07T08:25:27;13.20;;;4.10;;
14892;SDS011;7538;53.626;9.906;2023-08-07T08:27:55;10.43;;;3.97;;
14892;SDS011;7538;53.626;9.906;2023-08-07T08:30:21;15.00;;;4.63;;
14892;SDS011;7538;53.626;9.906;2023-08-07T08:32:48;11.48;;;3.47;;
14892;SDS011;7538;53.626;9.906;2023-08-07T08:35:15;9.02;;;3.67;;
14892;SDS011;7538;53.626;9.906;2023-08-07T08:37:42;12.45;;;3.95;;
14892;SDS011;7538;53.626;9.906;2023-08-07T08:40:09;12.18;;;4.32;;
14892;SDS011;7538;53.626;9.906;2023-08-07T08:42:41;15.30;;;4.40;;
14892;SDS011;7538;53.626;9.906;2023-08-07T08:45:12;11.38;;;4.18;;
14892;SDS011;7538;53.626;9.906;2023-08-07T08:47:39;12.52;;;3.67;;
14892;SDS011;7538;53.626;9.906;2023-08-07T08:50:09;11.05;;;4.30;;
14892;SDS011;7538;53.626;9.906;2023-08-07T08:52:41;14.43;;;4.10;;
14892;SDS011;7538;53.626;9.906;2023-08-07T08:55:08;10.15;;;3.95;;
14892;SDS011;7538;53.626;9.906;2023-08-07T08:57:36;11.18;;;3.85;;
14892;SDS011;7538;53.626;9.906;2023-08-07T09:00:04;14.05;;;4.15;;
14892;SDS011;7538;53.626;9.906;2023-08-07T09:02:43;15.95;;;4.18;;
14892;SDS011;7538;53.626;9.906;2023-08-07T09:05:10;11.63;;;3.92;;
14892;SDS011;7538;53.626;9.906;2023-08-07T09:07:37;11.05;;;4.07;;
14892;SDS011;7538;53.626;9.906;2023-08-07T09:10:04;13.32;;;4.47;;
14892;SDS011;7538;53.626;9.906;2023-08-07T09:12:32;11.85;;;4.30;;
14892;SDS011;7538;53.626;9.906;2023-08-07T09:15:01;12.63;;;3.85;;
14892;SDS011;7538;53.626;9.906;2023-08-07T09:17:31;13.63;;;3.58;;
14892;SDS011;7538;53.626;9.906;2023-08-07T09:20:02;8.75;;;3.55;;
14892;SDS011;7538;53.626;9.906;2023-08-07T09:22:31;7.75;;;2.83;;
14892;SDS011;7538;53.626;9.906;2023-08-07T09:24:58;10.35;;;3.42;;
14892;SDS011;7538;53.626;9.906;2023-08-07T09:27:25;10.73;;;3.50;;
14892;SDS011;7538;53.626;9.906;2023-08-07T09:29:54;9.38;;;3.40;;
14892;SDS011;7538;53.626;9.906;2023-08-07T09:32:21;8.48;;;3.50;;
14892;SDS011;7538;53.626;9.906;2023-08-07T09:34:50;6.28;;;3.38;;
14892;SDS011;7538;53.626;9.906;2023-08-07T09:37:18;12.38;;;3.70;;
14892;SDS011;7538;53.626;9.906;2023-08-07T09:39:45;5.90;;;2.60;;
14892;SDS011;7538;53.626;9.906;2023-08-07T09:42:13;8.75;;;3.28;;
14892;SDS011;7538;53.626;9.906;2023-08-07T09:44:40;7.88;;;3.00;;
14892;SDS011;7538;53.626;9.906;2023-08-07T09:47:14;8.50;;;3.38;;
14892;SDS011;7538;53.626;9.906;2023-08-07T09:49:42;7.72;;;3.10;;
14892;SDS011;7538;53.626;9.906;2023-08-07T09:52:10;8.55;;;3.30;;
14892;SDS011;7538;53.626;9.906;2023-08-07T09:58:00;6.63;;;3.30;;
14892;SDS011;7538;53.626;9.906;2023-08-07T10:00:27;7.57;;;3.17;;
14892;SDS011;7538;53.626;9.906;2023-08-07T10:02:59;7.53;;;3.30;;
14892;SDS011;7538;53.626;9.906;2023-08-07T10:05:27;7.47;;;3.00;;
14892;SDS011;7538;53.626;9.906;2023-08-07T10:07:54;11.45;;;3.75;;
14892;SDS011;7538;53.626;9.906;2023-08-07T10:10:21;6.45;;;3.05;;
14892;SDS011;7538;53.626;9.906;2023-08-07T10:12:50;11.07;;;3.00;;
14892;SDS011;7538;53.626;9.906;2023-08-07T10:15:19;10.95;;;3.35;;
14892;SDS011;7538;53.626;9.906;2023-08-07T10:17:45;6.85;;;3.10;;
14892;SDS011;7538;53.626;9.906;2023-08-07T10:20:12;11.32;;;3.28;;
14892;SDS011;7538;53.626;9.906;2023-08-07T10:22:39;8.27;;;3.53;;
14892;SDS011;7538;53.626;9.906;2023-08-07T10:25:08;11.25;;;4.13;;
14892;SDS011;7538;53.626;9.906;2023-08-07T10:27:36;9.60;;;3.35;;
14892;SDS011;7538;53.626;9.906;2023-08-07T10:30:06;6.55;;;3.33;;
14892;SDS011;7538;53.626;9.906;2023-08-07T10:32:38;7.82;;;3.70;;
14892;SDS011;7538;53.626;9.906;2023-08-07T10:35:07;14.52;;;4.00;;
14892;SDS011;7538;53.626;9.906;2023-08-07T10:37:40;12.70;;;4.07;;
14892;SDS011;7538;53.626;9.906;2023-08-07T10:40:08;9.73;;;3.63;;
14892;SDS011;7538;53.626;9.906;2023-08-07T10:45:22;8.98;;;3.30;;
14892;SDS011;7538;53.626;9.906;2023-08-07T10:47:57;7.20;;;3.15;;
14892;SDS011;7538;53.626;9.906;2023-08-07T10:50:29;10.05;;;3.03;;
14892;SDS011;7538;53.626;9.906;2023-08-07T10:52:59;8.63;;;3.05;;
14892;SDS011;7538;53.626;9.906;2023-08-07T10:55:26;10.40;;;3.38;;
14892;SDS011;7538;53.626;9.906;2023-08-07T10:57:57;14.10;;;3.85;;
14892;SDS011;7538;53.626;9.906;2023-08-07T11:00:25;9.73;;;3.40;;
14892;SDS011;7538;53.626;9.906;2023-08-07T11:02:53;6.75;;;2.92;;
14892;SDS011;7538;53.626;9.906;2023-08-07T11:05:21;6.97;;;2.60;;
14892;SDS011;7538;53.626;9.906;2023-08-07T11:07:50;8.38;;;3.17;;
14892;SDS011;7538;53.626;9.906;2023-08-07T11:10:19;10.63;;;2.70;;
14892;SDS011;7538;53.626;9.906;2023-08-07T11:12:46;6.03;;;2.80;;
14892;SDS011;7538;53.626;9.906;2023-08-07T11:15:14;7.50;;;3.17;;
14892;SDS011;7538;53.626;9.906;2023-08-07T11:17:41;7.70;;;2.70;;
14892;SDS011;7538;53.626;9.906;2023-08-07T11:20:08;6.78;;;2.67;;
14892;SDS011;7538;53.626;9.906;2023-08-07T11:22:39;8.20;;;2.95;;
14892;SDS011;7538;53.626;9.906;2023-08-07T11:25:07;7.60;;;2.45;;
14892;SDS011;7538;53.626;9.906;2023-08-07T11:27:38;7.32;;;2.95;;
14892;SDS011;7538;53.626;9.906;2023-08-07T11:30:05;9.15;;;2.90;;
14892;SDS011;7538;53.626;9.906;2023-08-07T11:32:36;6.22;;;2.83;;
14892;SDS011;7538;53.626;9.906;2023-08-07T11:35:03;7.93;;;2.58;;
14892;SDS011;7538;53.626;9.906;2023-08-07T11:37:31;12.52;;;2.75;;
14892;SDS011;7538;53.626;9.906;2023-08-07T11:40:00;8.55;;;2.85;;
14892;SDS011;7538;53.626;9.906;2023-08-07T11:42:28;8.00;;;3.10;;
14892;SDS011;7538;53.626;9.906;2023-08-07T11:44:55;8.02;;;2.53;;
14892;SDS011;7538;53.626;9.906;2023-08-07T11:47:21;5.95;;;2.38;;
14892;SDS011;7538;53.626;9.906;2023-08-07T11:49:48;5.60;;;2.40;;
14892;SDS011;7538;53.626;9.906;2023-08-07T11:52:17;5.53;;;2.15;;
14892;SDS011;7538;53.626;9.906;2023-08-07T11:54:46;6.70;;;2.55;;
14892;SDS011;7538;53.626;9.906;2023-08-07T11:57:19;7.80;;;2.33;;
14892;SDS011;7538;53.626;9.906;2023-08-07T11:59:49;4.68;;;2.03;;
14892;SDS011;7538;53.626;9.906;2023-08-07T12:02:16;6.68;;;2.28;;
14892;SDS011;7538;53.626;9.906;2023-08-07T12:04:47;7.15;;;2.60;;
14892;SDS011;7538;53.626;9.906;2023-08-07T12:07:16;9.02;;;3.33;;
14892;SDS011;7538;53.626;9.906;2023-08-07T12:09:44;8.20;;;2.83;;
14892;SDS011;7538;53.626;9.906;2023-08-07T12:12:11;8.93;;;2.90;;
14892;SDS011;7538;53.626;9.906;2023-08-07T12:14:39;8.27;;;2.70;;
14892;SDS011;7538;53.626;9.906;2023-08-07T12:17:08;7.50;;;2.25;;
14892;SDS011;7538;53.626;9.906;2023-08-07T12:19:36;6.18;;;1.92;;
14892;SDS011;7538;53.626;9.906;2023-08-07T12:22:05;5.97;;;2.70;;
14892;SDS011;7538;53.626;9.906;2023-08-07T12:24:34;10.10;;;2.97;;
14892;SDS011;7538;53.626;9.906;2023-08-07T12:27:02;6.75;;;2.70;;
14892;SDS011;7538;53.626;9.906;2023-08-07T12:29:29;5.38;;;2.97;;
14892;SDS011;7538;53.626;9.906;2023-08-07T12:31:57;7.68;;;2.83;;
14892;SDS011;7538;53.626;9.906;2023-08-07T12:34:26;12.38;;;3.38;;
14892;SDS011;7538;53.626;9.906;2023-08-07T12:40:14;9.38;;;3.22;;
14892;SDS011;7538;53.626;9.906;2023-08-07T12:42:45;12.10;;;3.40;;
14892;SDS011;7538;53.626;9.906;2023-08-07T12:45:13;9.63;;;3.10;;
14892;SDS011;7538;53.626;9.906;2023-08-07T12:47:42;7.53;;;3.00;;
14892;SDS011;7538;53.626;9.906;2023-08-07T12:50:09;8.93;;;3.30;;
14892;SDS011;7538;53.626;9.906;2023-08-07T12:52:35;10.48;;;3.38;;
14892;SDS011;7538;53.626;9.906;2023-08-07T12:55:03;11.35;;;3.42;;
14892;SDS011;7538;53.626;9.906;2023-08-07T12:57:30;7.35;;;2.38;;
14892;SDS011;7538;53.626;9.906;2023-08-07T13:00:00;6.80;;;2.40;;
14892;SDS011;7538;53.626;9.906;2023-08-07T13:02:39;7.22;;;3.00;;
14892;SDS011;7538;53.626;9.906;2023-08-07T13:05:08;8.05;;;4.85;;
14892;SDS011;7538;53.626;9.906;2023-08-07T13:07:35;8.45;;;2.83;;
14892;SDS011;7538;53.626;9.906;2023-08-07T13:10:03;8.43;;;2.65;;
14892;SDS011;7538;53.626;9.906;2023-08-07T13:12:33;6.78;;;2.80;;
14892;SDS011;7538;53.626;9.906;2023-08-07T13:15:01;6.88;;;3.58;;
14892;SDS011;7538;53.626;9.906;2023-08-07T13:17:27;11.60;;;3.97;;
14892;SDS011;7538;53.626;9.906;2023-08-07T13:19:54;11.82;;;3.63;;
14892;SDS011;7538;53.626;9.906;2023-08-07T13:22:22;8.98;;;3.38;;
14892;SDS011;7538;53.626;9.906;2023-08-07T13:24:49;8.30;;;2.97;;
14892;SDS011;7538;53.626;9.906;2023-08-07T13:27:16;14.60;;;9.90;;
14892;SDS011;7538;53.626;9.906;2023-08-07T13:29:46;13.15;;;5.13;;
14892;SDS011;7538;53.626;9.906;2023-08-07T13:32:32;10.93;;;4.75;;
14892;SDS011;7538;53.626;9.906;2023-08-07T13:34:59;8.18;;;4.70;;
14892;SDS011;7538;53.626;9.906;2023-08-07T13:37:27;10.00;;;3.67;;
14892;SDS011;7538;53.626;9.906;2023-08-07T13:39:54;8.27;;;3.38;;
14892;SDS011;7538;53.626;9.906;2023-08-07T13:42:23;10.95;;;3.88;;
14892;SDS011;7538;53.626;9.906;2023-08-07T13:44:51;8.27;;;4.20;;
14892;SDS011;7538;53.626;9.906;2023-08-07T13:47:19;12.13;;;3.85;;
14892;SDS011;7538;53.626;9.906;2023-08-07T13:49:46;11.07;;;3.78;;
14892;SDS011;7538;53.626;9.906;2023-08-07T13:52:13;8.50;;;2.97;;
14892;SDS011;7538;53.626;9.906;2023-08-07T13:54:41;8.63;;;3.25;;
14892;SDS011;7538;53.626;9.906;2023-08-07T13:57:08;7.10;;;3.10;;
14892;SDS011;7538;53.626;9.906;2023-08-07T13:59:34;13.18;;;3.85;;
14892;SDS011;7538;53.626;9.906;2023-08-07T14:02:01;12.98;;;3.30;;
14892;SDS011;7538;53.626;9.906;2023-08-07T14:04:28;10.60;;;3.22;;
14892;SDS011;7538;53.626;9.906;2023-08-07T14:06:55;11.80;;;3.10;;
14892;SDS011;7538;53.626;9.906;2023-08-07T14:09:22;7.50;;;3.17;;
14892;SDS011;7538;53.626;9.906;2023-08-07T14:11:50;11.55;;;3.15;;
14892;SDS011;7538;53.626;9.906;2023-08-07T14:14:20;9.30;;;3.10;;
14892;SDS011;7538;53.626;9.906;2023-08-07T14:17:04;5.30;;;2.80;;
14892;SDS011;7538;53.626;9.906;2023-08-07T14:19:35;11.45;;;3.03;;
14892;SDS011;7538;53.626;9.906;2023-08-07T14:22:02;9.50;;;3.20;;
14892;SDS011;7538;53.626;9.906;2023-08-07T14:24:30;9.57;;;4.03;;
14892;SDS011;7538;53.626;9.906;2023-08-07T14:30:29;9.75;;;3.53;;
14892;SDS011;7538;53.626;9.906;2023-08-07T14:32:58;10.13;;;3.33;;
14892;SDS011;7538;53.626;9.906;2023-08-07T14:35:28;8.70;;;3.08;;
14892;SDS011;7538;53.626;9.906;2023-08-07T14:37:55;8.55;;;3.50;;
14892;SDS011;7538;53.626;9.906;2023-08-07T14:40:21;11.10;;;3.78;;
14892;SDS011;7538;53.626;9.906;2023-08-07T14:42:53;9.82;;;3.50;;
14892;SDS011;7538;53.626;9.906;2023-08-07T14:45:22;10.55;;;3.13;;
14892;SDS011;7538;53.626;9.906;2023-08-07T14:47:51;7.82;;;2.90;;
14892;SDS011;7538;53.626;9.906;2023-08-07T14:53:09;11.35;;;3.97;;
14892;SDS011;7538;53.626;9.906;2023-08-07T14:55:36;8.50;;;3.38;;
14892;SDS011;7538;53.626;9.906;2023-08-07T14:58:03;12.02;;;4.15;;
14892;SDS011;7538;53.626;9.906;2023-08-07T15:00:30;14.15;;;3.72;;
14892;SDS011;7538;53.626;9.906;2023-08-07T15:02:58;13.27;;;4.43;;
14892;SDS011;7538;53.626;9.906;2023-08-07T15:05:27;15.57;;;4.85;;
14892;SDS011;7538;53.626;9.906;2023-08-07T15:08:09;11.93;;;4.13;;
14892;SDS011;7538;53.626;9.906;2023-08-07T15:10:39;10.05;;;4.28;;
14892;SDS011;7538;53.626;9.906;2023-08-07T15:13:06;10.05;;;3.45;;
14892;SDS011;7538;53.626;9.906;2023-08-07T15:15:33;9.13;;;3.30;;
14892;SDS011;7538;53.626;9.906;2023-08-07T15:18:01;7.82;;;3.08;;
14892;SDS011;7538;53.626;9.906;2023-08-07T15:20:29;6.72;;;3.20;;
14892;SDS011;7538;53.626;9.906;2023-08-07T15:22:56;10.77;;;3.20;;
14892;SDS011;7538;53.626;9.906;2023-08-07T15:25:23;8.50;;;3.40;;